Time;durP1;ratioP1;P1;durP2;ratioP2;P2;SDS_P1;SDS_P2;PMS_P1;PMS_P2;Temp;Humidity;BMP_temperature;BMP_pressure;BME280_temperature;BME280_humidity;BME280_pressure;Samples;Min_cycle;Max_cycle;Signal;HPM_P1;HPM_P2
2022/07/15 00:00:47;;;;;;;9.95;2.17;;;;;;;;;;5129667;27;20903;-78
2022/07/15 00:03:13;;;;;;;8.65;2.30;;;;;;;;;;5132095;27;20398;-78
2022/07/15 00:05:39;;;;;;;9.35;2.40;;;;;;;;;;5112987;27;20888;-79
2022/07/15 00:08:05;;;;;;;9.32;2.70;;;;;;;;;;5112372;27;20413;-79
2022/07/15 00:10:31;;;;;;;8.50;2.30;;;;;;;;;;5114059;27;20425;-79
2022/07/15 00:12:59;;;;;;;8.10;2.40;;;;;;;;;;5130024;27;20747;-79
2022/07/15 00:15:27;;;;;;;8.50;2.78;;;;;;;;;;5113447;27;20506;-79
2022/07/15 00:17:54;;;;;;;8.25;2.88;;;;;;;;;;5119320;27;20419;-80
2022/07/15 00:20:21;;;;;;;8.05;2.63;;;;;;;;;;5128675;27;20418;-80
2022/07/15 00:22:47;;;;;;;8.63;2.60;;;;;;;;;;5124578;27;20416;-81
2022/07/15 00:25:14;;;;;;;9.25;2.60;;;14.30;99.90;;;;;;5124177;27;20416;-80
2022/07/15 00:28:01;;;;;;;10.33;2.63;;;14.10;99.90;;;;;;5094303;28;20454;-78
2022/07/15 00:30:31;;;;;;;10.13;2.57;;;;;;;;;;5095402;27;20412;-78
2022/07/15 00:32:57;;;;;;;9.18;2.45;;;;;;;;;;5112047;27;20912;-78
2022/07/15 00:35:23;;;;;;;9.35;2.40;;;;;;;;;;5112770;27;20457;-78
2022/07/15 00:37:49;;;;;;;9.15;2.55;;;;;;;;;;5109873;27;20416;-78
2022/07/15 00:40:15;;;;;;;8.93;2.60;;;;;;;;;;5118535;27;20458;-78
2022/07/15 00:42:44;;;;;;;8.25;2.50;;;;;;;;;;5110905;27;20904;-79
2022/07/15 00:45:11;;;;;;;6.38;2.40;;;;;;;;;;5153371;27;20927;-79
2022/07/15 00:47:37;;;;;;;10.40;3.00;;;;;;;;;;5095099;28;20423;-78
2022/07/15 00:50:03;;;;;;;9.63;2.75;;;;;;;;;;5116979;27;20946;-79
2022/07/15 00:52:30;;;;;;;10.73;2.40;;;;;;;;;;5110925;28;20400;-79
2022/07/15 00:54:59;;;;;;;7.97;2.30;;;;;;;;;;5109674;27;20416;-79
2022/07/15 00:57:26;;;;;;;8.50;2.33;;;;;;;;;;5110738;28;20951;-78
2022/07/15 00:59:54;;;;;;;14.15;3.00;;;;;;;;;;5123810;27;20427;-79
2022/07/15 01:02:20;;;;;;;9.73;2.30;;;;;;;;;;5114460;27;20407;-79
2022/07/15 01:04:48;;;;;;;10.10;2.45;;;;;;;;;;5130926;27;20418;-79
2022/07/15 01:07:14;;;;;;;10.63;2.30;;;;;;;;;;5099259;27;20412;-79
2022/07/15 01:09:41;;;;;;;9.10;2.58;;;;;;;;;;5110083;28;20436;-79
2022/07/15 01:12:07;;;;;;;9.00;2.70;;;;;;;;;;5125658;27;20523;-78
2022/07/15 01:14:33;;;;;;;9.27;2.27;;;;;;;;;;5124576;27;20423;-78
2022/07/15 01:16:59;;;;;;;9.43;2.58;;;;;;;;;;5111466;27;20428;-78
2022/07/15 01:19:25;;;;;;;8.45;2.63;;;;;;;;;;5129363;28;20418;-79
2022/07/15 01:21:51;;;;;;;8.60;2.53;;;;;;;;;;5130932;28;20560;-79
2022/07/15 01:24:18;;;;;;;10.00;2.97;;;;;;;;;;5136088;27;20489;-79
2022/07/15 01:26:44;;;;;;;9.70;2.63;;;;;;;;;;5108379;27;20442;-79
2022/07/15 01:29:10;;;;;;;9.57;2.40;;;;;;;;;;5126837;27;20775;-78
2022/07/15 01:31:36;;;;;;;8.35;2.60;;;;;;;;;;5132331;27;20411;-79
2022/07/15 01:34:02;;;;;;;7.40;3.00;;;;;;;;;;5122817;27;20495;-78
2022/07/15 01:36:28;;;;;;;8.10;3.00;;;;;;;;;;5114779;27;20412;-79
2022/07/15 01:38:54;;;;;;;11.07;3.00;;;;;;;;;;5118779;27;20452;-79
2022/07/15 01:41:22;;;;;;;12.07;2.55;;;;;;;;;;5128562;27;20423;-78
2022/07/15 01:43:48;;;;;;;11.43;2.63;;;;;;;;;;5098449;28;20439;-79
2022/07/15 01:46:14;;;;;;;11.95;3.33;;;;;;;;;;5085500;27;20422;-79
2022/07/15 01:51:25;;;;;;;7.93;2.50;;;;;;;;;;5133987;27;20539;-79
2022/07/15 01:53:51;;;;;;;9.55;2.50;;;;;;;;;;5119311;27;20417;-79
2022/07/15 01:56:17;;;;;;;10.87;3.07;;;;;;;;;;5128420;27;20442;-79
2022/07/15 01:58:43;;;;;;;8.77;2.55;;;;;;;;;;5114293;27;20487;-79
2022/07/15 02:01:09;;;;;;;9.85;2.60;;;;;;;;;;5134978;27;20750;-79
2022/07/15 02:03:35;;;;;;;8.68;2.25;;;;;;;;;;5119234;27;20871;-79
2022/07/15 02:06:01;;;;;;;9.37;2.63;;;;;;;;;;5133164;27;20712;-79
2022/07/15 02:08:27;;;;;;;11.00;2.83;;;;;;;;;;5129537;27;20578;-79
2022/07/15 02:10:53;;;;;;;11.35;2.70;;;;;;;;;;5113590;27;20422;-79
2022/07/15 02:13:20;;;;;;;9.38;2.72;;;;;;;;;;5097242;28;20403;-78
2022/07/15 02:15:46;;;;;;;9.48;2.55;;;;;;;;;;5113340;27;20423;-79
2022/07/15 02:18:12;;;;;;;12.30;3.00;;;;;;;;;;5130354;27;20848;-78
2022/07/15 02:20:38;;;;;;;8.55;2.45;;;;;;;;;;5124133;27;20454;-78
2022/07/15 02:23:05;;;;;;;9.50;2.72;;;;;;;;;;5122229;27;20414;-79
2022/07/15 02:25:33;;;;;;;9.80;2.80;;;13.00;99.90;;;;;;5134128;27;20426;-79
2022/07/15 02:28:00;;;;;;;9.55;2.80;;;12.70;99.90;;;;;;5123341;27;20410;-79
2022/07/15 02:30:31;;;;;;;9.25;3.00;;;;;;;;;;5123372;27;20463;-79
2022/07/15 02:32:57;;;;;;;10.90;2.70;;;;;;;;;;5112034;27;20487;-79
2022/07/15 02:35:23;;;;;;;8.63;2.63;;;;;;;;;;5116678;27;20418;-79
2022/07/15 02:37:49;;;;;;;9.65;2.95;;;;;;;;;;5098752;27;20420;-79
2022/07/15 02:40:15;;;;;;;8.73;2.90;;;;;;;;;;5113331;27;20447;-79
2022/07/15 02:42:47;;;;;;;11.82;2.97;;;;;;;;;;5103708;28;20436;-79
2022/07/15 02:45:13;;;;;;;9.93;2.80;;;;;;;;;;5097348;27;20416;-79
2022/07/15 02:47:39;;;;;;;8.77;2.80;;;;;;;;;;5120713;27;20507;-79
2022/07/15 02:50:05;;;;;;;10.52;3.10;;;;;;;;;;5117967;27;20413;-78
2022/07/15 02:52:31;;;;;;;10.60;2.77;;;;;;;;;;5132348;27;20786;-79
2022/07/15 02:54:58;;;;;;;11.30;3.72;;;;;;;;;;5113420;28;20472;-79
2022/07/15 02:57:24;;;;;;;12.20;2.95;;;;;;;;;;5115289;27;20420;-79
2022/07/15 02:59:50;;;;;;;12.40;2.92;;;;;;;;;;5134931;27;20417;-79
2022/07/15 03:02:16;;;;;;;9.98;2.95;;;;;;;;;;5099635;27;20894;-78
2022/07/15 03:04:42;;;;;;;8.77;2.70;;;;;;;;;;5130190;27;20476;-78
2022/07/15 03:07:08;;;;;;;8.38;2.95;;;;;;;;;;5108186;27;20419;-78
2022/07/15 03:09:35;;;;;;;7.85;2.72;;;;;;;;;;5115254;27;20484;-78
2022/07/15 03:12:01;;;;;;;9.10;2.95;;;;;;;;;;5100029;27;20912;-78
2022/07/15 03:14:27;;;;;;;12.18;2.70;;;;;;;;;;5117296;27;20740;-78
2022/07/15 03:16:53;;;;;;;8.38;2.78;;;;;;;;;;5124816;27;20458;-78
2022/07/15 03:19:20;;;;;;;8.07;2.80;;;;;;;;;;5112602;28;20400;-78
2022/07/15 03:21:47;;;;;;;10.02;2.80;;;;;;;;;;5114213;27;20416;-78
2022/07/15 03:24:14;;;;;;;8.38;2.90;;;;;;;;;;5123004;27;20418;-78
2022/07/15 03:26:40;;;;;;;10.98;2.72;;;;;;;;;;5096860;27;20417;-78
2022/07/15 03:29:06;;;;;;;7.30;2.70;;;;;;;;;;5110051;27;20425;-77
2022/07/15 03:31:32;;;;;;;11.18;2.80;;;;;;;;;;5116819;27;20432;-77
2022/07/15 03:33:58;;;;;;;7.77;2.63;;;;;;;;;;5128084;27;20968;-79
2022/07/15 03:36:25;;;;;;;8.95;2.72;;;;;;;;;;5130960;27;20916;-79
2022/07/15 03:38:51;;;;;;;9.30;2.70;;;;;;;;;;5127551;27;20427;-79
2022/07/15 03:41:21;;;;;;;9.43;2.60;;;;;;;;;;5112491;28;20416;-79
2022/07/15 03:43:47;;;;;;;6.82;2.47;;;;;;;;;;5111839;27;20421;-78
2022/07/15 03:46:16;;;;;;;7.27;2.20;;;;;;;;;;5130076;27;20419;-78
2022/07/15 03:48:42;;;;;;;8.00;2.40;;;;;;;;;;5125478;27;20824;-78
2022/07/15 03:51:09;;;;;;;8.73;2.42;;;;;;;;;;5131814;27;20403;-79
2022/07/15 03:53:35;;;;;;;8.25;2.60;;;;;;;;;;5122674;27;20918;-79
2022/07/15 03:56:02;;;;;;;6.90;2.20;;;;;;;;;;5112598;27;20414;-79
2022/07/15 03:58:28;;;;;;;9.13;2.50;;;;;;;;;;5114367;27;20414;-79
2022/07/15 04:00:54;;;;;;;8.90;2.55;;;;;;;;;;5132407;27;20402;-79
2022/07/15 04:03:20;;;;;;;7.05;2.63;;;;;;;;;;5113077;27;20410;-79
2022/07/15 04:05:46;;;;;;;9.20;2.60;;;;;;;;;;5093801;27;20435;-79
2022/07/15 04:08:12;;;;;;;7.85;2.40;;;;;;;;;;5117552;27;20410;-79
2022/07/15 04:10:38;;;;;;;9.07;3.10;;;;;;;;;;5122332;27;20440;-79
2022/07/15 04:13:04;;;;;;;9.90;2.20;;;;;;;;;;5094754;28;20407;-79
2022/07/15 04:15:30;;;;;;;8.15;2.20;;;;;;;;;;5112091;27;20802;-79
2022/07/15 04:17:58;;;;;;;9.57;2.47;;;;;;;;;;5125995;27;20636;-79
2022/07/15 04:20:24;;;;;;;9.50;2.20;;;12.30;99.90;;;;;;5112399;27;20419;-79
2022/07/15 04:22:51;;;;;;;6.90;2.10;;;;;;;;;;5111037;28;20401;-80
2022/07/15 04:25:18;;;;;;;6.38;2.30;;;;;;;;;;5118595;27;20505;-80
2022/07/15 04:27:44;;;;;;;6.00;2.10;;;;;;;;;;5128233;27;20417;-80
2022/07/15 04:30:11;;;;;;;7.00;2.22;;;;;;;;;;5129374;27;20479;-79
2022/07/15 04:32:38;;;;;;;7.60;2.17;;;;;;;;;;5129711;27;20501;-79
2022/07/15 04:35:04;;;;;;;5.50;2.13;;;;;;;;;;5106608;27;20420;-77
2022/07/15 04:37:30;;;;;;;6.00;1.92;;;;;;;;;;5127089;27;20501;-77
2022/07/15 04:39:56;;;;;;;6.53;1.95;;;;;;;;;;5114289;27;20398;-77
2022/07/15 04:42:22;;;;;;;8.57;2.15;;;;;;;;;;5110694;27;20432;-77
2022/07/15 04:44:49;;;;;;;6.45;2.28;;;13.20;99.90;;;;;;5117163;27;20522;-78
2022/07/15 04:47:15;;;;;;;4.30;1.67;;;;;;;;;;5125180;27;20739;-78
2022/07/15 04:52:26;;;;;;;6.18;1.50;;;;;;;;;;5097496;28;20408;-78
2022/07/15 04:54:53;;;;;;;4.57;1.50;;;;;;;;;;5123024;27;20418;-78
2022/07/15 04:57:19;;;;;;;5.22;1.40;;;;;;;;;;5113761;27;20488;-78
2022/07/15 04:59:45;;;;;;;8.27;1.77;;;;;;;;;;5111302;27;20473;-78
2022/07/15 05:02:11;;;;;;;4.55;1.33;;;;;;;;;;5094231;28;20404;-78
2022/07/15 05:04:38;;;;;;;4.85;1.23;;;;;;;;;;5120769;27;20505;-78
2022/07/15 05:07:05;;;;;;;5.00;1.40;;;;;;;;;;5113468;28;20478;-77
2022/07/15 05:09:31;;;;;;;6.88;1.77;;;;;;;;;;5123228;27;20423;-77
2022/07/15 05:11:57;;;;;;;6.60;1.77;;;;;;;;;;5111417;28;20412;-77
2022/07/15 05:14:23;;;;;;;5.95;1.60;;;;;;;;;;5121951;27;20414;-77
2022/07/15 05:16:50;;;;;;;7.53;1.80;;;;;;;;;;5145155;27;20786;-77
2022/07/15 05:19:16;;;;;;;6.18;1.50;;;;;;;;;;5139149;27;20423;-76
2022/07/15 05:21:42;;;;;;;5.53;1.35;;;;;;;;;;5114528;28;20394;-76
2022/07/15 05:24:08;;;;;;;4.23;1.43;;;;;;;;;;5114183;28;20914;-76
2022/07/15 05:26:34;;;;;;;4.65;1.27;;;;;;;;;;5113521;28;20410;-76
2022/07/15 05:29:01;;;;;;;6.05;1.60;;;;;;;;;;5124816;27;20416;-76
2022/07/15 05:31:27;;;;;;;3.97;1.30;;;;;;;;;;5113305;27;20755;-76
2022/07/15 05:33:54;;;;;;;4.85;1.27;;;;;;;;;;5123682;27;20414;-76
2022/07/15 05:36:20;;;;;;;3.67;1.10;;;;;;;;;;5109733;28;20532;-76
2022/07/15 05:38:46;;;;;;;5.30;1.30;;;;;;;;;;5127527;27;20438;-77
2022/07/15 05:41:13;;;;;;;3.47;1.10;;;;;;;;;;5116388;28;20420;-76
2022/07/15 05:43:39;;;;;;;10.55;1.50;;;;;;;;;;5129964;28;20418;-76
2022/07/15 05:46:05;;;;;;;4.30;1.38;;;;;;;;;;5121197;28;20440;-76
2022/07/15 05:48:32;;;;;;;2.80;0.93;;;;;;;;;;5094242;27;20411;-74
2022/07/15 05:50:58;;;;;;;3.75;1.02;;;14.90;99.90;;;;;;5127007;27;20550;-74
2022/07/15 05:53:24;;;;;;;3.90;1.02;;;;;;;;;;5151617;27;20880;-74
2022/07/15 05:55:52;;;;;;;4.85;1.23;;;;;;;;;;5119577;28;20427;-74
2022/07/15 05:58:18;;;;;;;5.65;1.20;;;;;;;;;;5093217;28;20407;-74
2022/07/15 06:00:44;;;;;;;3.88;1.00;;;;;;;;;;5111291;27;20419;-74
2022/07/15 06:03:10;;;;;;;2.88;1.00;;;;;;;;;;5076295;28;20837;-74
2022/07/15 06:05:36;;;;;;;3.50;1.00;;;;;;;;;;5084606;28;20410;-76
2022/07/15 06:08:02;;;;;;;4.53;1.10;;;15.20;99.90;;;;;;5113928;28;20395;-75
2022/07/15 06:10:28;;;;;;;3.42;1.02;;;;;;;;;;5130504;27;20506;-75
2022/07/15 06:12:55;;;;;;;4.43;0.95;;;;;;;;;;5117652;27;20398;-75
2022/07/15 06:15:22;;;;;;;3.40;0.90;;;;;;;;;;5110158;27;20474;-75
2022/07/15 06:17:49;;;;;;;5.30;1.17;;;;;;;;;;5134032;27;20390;-76
2022/07/15 06:20:15;;;;;;;4.20;1.10;;;;;;;;;;5106204;27;20423;-77
2022/07/15 06:22:42;;;;;;;3.08;1.10;;;;;;;;;;5125065;27;20418;-76
2022/07/15 06:25:08;;;;;;;2.40;1.07;;;;;;;;;;5095089;28;20480;-77
2022/07/15 06:27:34;;;;;;;4.05;1.05;;;;;;;;;;5124218;27;20416;-76
2022/07/15 06:30:00;;;;;;;2.47;1.00;;;;;;;;;;5127591;27;20511;-75
2022/07/15 06:32:26;;;;;;;3.63;1.08;;;;;;;;;;5133864;27;20417;-77
2022/07/15 06:34:53;;;;;;;3.55;1.20;;;;;;;;;;5116556;27;20398;-77
2022/07/15 06:37:19;;;;;;;4.25;1.10;;;;;;;;;;5135517;27;20754;-77
2022/07/15 06:39:45;;;;;;;3.53;1.08;;;;;;;;;;5110529;27;20448;-76
2022/07/15 06:42:11;;;;;;;4.47;1.00;;;;;;;;;;5120313;27;20415;-76
2022/07/15 06:44:37;;;;;;;2.97;1.00;;;;;;;;;;5135120;27;20425;-77
2022/07/15 06:47:06;;;;;;;5.50;1.03;;;;;;;;;;5094963;28;20515;-76
2022/07/15 06:49:32;;;;;;;4.22;1.13;;;;;;;;;;5118212;27;20442;-76
2022/07/15 06:51:58;;;;;;;4.15;1.02;;;;;;;;;;5121082;27;20479;-77
2022/07/15 06:54:25;;;;;;;5.47;1.55;;;;;;;;;;5114135;27;20990;-75
2022/07/15 06:56:51;;;;;;;3.67;0.98;;;;;;;;;;5119432;27;20494;-77
2022/07/15 06:59:17;;;;;;;4.75;0.80;;;;;;;;;;5111309;27;20414;-77
2022/07/15 07:01:43;;;;;;;5.45;1.13;;;;;;;;;;5116174;27;20902;-78
2022/07/15 07:04:09;;;;;;;3.30;0.80;;;;;;;;;;5111003;27;20412;-76
2022/07/15 07:06:35;;;;;;;3.70;0.90;;;;;;;;;;5125463;27;20471;-76
2022/07/15 07:09:01;;;;;;;5.25;1.00;;;;;;;;;;5103581;27;20477;-77
2022/07/15 07:11:29;;;;;;;4.00;1.27;;;;;;;;;;5111317;27;20540;-76
2022/07/15 07:13:55;;;;;;;3.90;1.05;;;;;;;;;;5114938;27;20468;-76
2022/07/15 07:16:21;;;;;;;5.78;1.33;;;;;;;;;;5113716;27;20494;-76
2022/07/15 07:18:47;;;;;;;11.85;1.52;;;;;;;;;;5128785;27;20429;-75
2022/07/15 07:21:14;;;;;;;9.47;1.23;;;;;;;;;;5133109;27;20506;-75
2022/07/15 07:23:40;;;;;;;3.88;1.10;;;;;;;;;;5128891;27;20418;-75
2022/07/15 07:26:08;;;;;;;2.10;1.00;;;17.90;99.90;;;;;;5148860;27;20424;-75
2022/07/15 07:28:34;;;;;;;2.83;0.93;;;;;;;;;;5129729;27;20453;-75
2022/07/15 07:31:00;;;;;;;4.22;1.00;;;17.70;99.90;;;;;;5126433;27;20414;-75
2022/07/15 07:33:26;;;;;;;7.00;1.17;;;;;;;;;;5138243;27;20407;-76
2022/07/15 07:35:52;;;;;;;4.47;1.50;;;;;;;;;;5136159;27;20424;-76
2022/07/15 07:38:19;;;;;;;6.77;1.27;;;;;;;;;;5126451;27;20510;-76
2022/07/15 07:40:49;;;;;;;3.22;0.77;;;;;;;;;;5131005;27;20419;-76
2022/07/15 07:43:18;;;;;;;2.50;0.80;;;;;;;;;;5114541;27;20419;-76
2022/07/15 07:45:45;;;;;;;3.00;0.70;;;;;;;;;;5117774;27;20457;-76
2022/07/15 07:48:11;;;;;;;4.20;0.80;;;;;;;;;;5112417;27;20937;-76
2022/07/15 07:50:38;;;;;;;4.50;1.08;;;;;;;;;;5123818;27;20454;-76
2022/07/15 07:53:04;;;;;;;2.38;0.70;;;17.80;99.90;;;;;;5118675;27;20896;-76
2022/07/15 07:55:30;;;;;;;3.50;0.85;;;;;;;;;;5121751;27;20431;-76
2022/07/15 07:57:58;;;;;;;2.70;0.70;;;18.20;99.90;;;;;;5078380;27;20491;-75
2022/07/15 08:00:29;;;;;;;3.78;1.00;;;18.40;99.90;;;;;;5095693;27;20482;-76
2022/07/15 08:02:56;;;;;;;2.83;1.00;;;18.80;99.90;;;;;;5121222;27;20836;-77
2022/07/15 08:05:22;;;;;;;3.95;0.90;;;;;;;;;;5141784;27;20403;-76
2022/07/15 08:07:48;;;;;;;4.73;1.10;;;18.60;99.90;;;;;;5132837;27;20473;-77
2022/07/15 08:10:16;;;;;;;3.90;0.90;;;17.80;99.90;;;;;;5120761;27;20795;-77
2022/07/15 08:12:42;;;;;;;3.65;0.90;;;;;;;;;;5130509;27;20423;-77
2022/07/15 08:15:11;;;;;;;5.07;1.00;;;17.80;99.90;;;;;;5132952;27;20407;-77
2022/07/15 08:17:38;;;;;;;2.30;0.90;;;17.80;99.90;;;;;;5105679;27;20449;-76
2022/07/15 08:20:07;;;;;;;3.58;1.17;;;17.80;99.90;;;;;;5124612;27;20414;-77
2022/07/15 08:22:33;;;;;;;4.93;0.85;;;18.00;99.90;;;;;;5110740;27;20426;-77
2022/07/15 08:24:59;;;;;;;2.80;0.90;;;18.20;99.90;;;;;;5111210;27;20421;-76
2022/07/15 08:27:25;;;;;;;3.83;0.90;;;;;;;;;;5133018;27;20418;-76
2022/07/15 08:29:51;;;;;;;2.42;0.85;;;18.60;99.90;;;;;;5113619;27;20412;-77
2022/07/15 08:32:17;;;;;;;4.30;0.80;;;;;;;;;;5097603;27;20416;-77
2022/07/15 08:34:43;;;;;;;5.20;0.90;;;18.90;99.90;;;;;;5099209;28;20477;-77
2022/07/15 08:37:09;;;;;;;3.97;0.80;;;19.50;99.90;;;;;;5123018;27;20411;-76
2022/07/15 08:39:37;;;;;;;0.85;0.60;;;19.50;99.90;;;;;;5108756;27;20418;-76
2022/07/15 08:42:03;;;;;;;2.23;0.97;;;19.90;99.90;;;;;;5131702;27;20766;-77
2022/07/15 08:44:30;;;;;;;2.90;0.98;;;19.50;99.90;;;;;;5130096;27;20483;-77
2022/07/15 08:47:02;;;;;;;5.30;0.93;;;19.60;99.90;;;;;;5131845;27;20412;-76
2022/07/15 08:49:29;;;;;;;4.45;0.93;;;;;;;;;;5122477;27;20423;-76
2022/07/15 08:51:57;;;;;;;3.17;0.85;;;19.20;99.90;;;;;;5130988;27;20847;-76
2022/07/15 08:54:23;;;;;;;2.65;0.90;;;;;;;;;;5126708;27;20909;-77
2022/07/15 08:56:50;;;;;;;2.15;0.80;;;;;;;;;;5131555;27;20403;-76
2022/07/15 08:59:17;;;;;;;2.97;0.75;;;18.70;99.90;;;;;;5124016;27;20557;-77
2022/07/15 09:01:48;;;;;;;2.35;0.80;;;;;;;;;;5131417;27;20480;-77
2022/07/15 09:04:15;;;;;;;6.63;1.00;;;18.90;99.90;;;;;;5129075;27;20426;-74
2022/07/15 09:06:46;;;;;;;2.90;0.90;;;18.80;99.90;;;;;;5114295;28;20429;-74
2022/07/15 09:09:31;;;;;;;3.35;1.05;;;18.80;99.90;;;;;;5122386;27;20423;-74
2022/07/15 09:12:07;;;;;;;2.95;0.70;;;;;;;;;;5121303;27;20427;-74
2022/07/15 09:14:35;;;;;;;2.92;0.68;;;18.70;99.90;;;;;;5129532;27;20902;-74
2022/07/15 09:17:10;;;;;;;4.20;0.77;;;18.50;99.90;;;;;;5114068;28;20418;-74
2022/07/15 09:20:09;;;;;;;3.78;0.93;;;18.30;99.90;;;;;;5111661;28;20493;-74
2022/07/15 09:22:57;;;;;;;2.78;0.70;;;18.50;99.90;;;;;;5106972;28;20491;-74
2022/07/15 09:25:24;;;;;;;5.15;1.00;;;18.80;99.90;;;;;;5126254;28;20751;-75
2022/07/15 09:27:50;;;;;;;2.25;0.80;;;;;;;;;;5131059;28;20751;-75
2022/07/15 09:36:01;;;;;;;5.30;0.83;;;18.60;99.90;;;;;;5109846;28;20557;-77
2022/07/15 09:38:41;;;;;;;3.53;0.75;;;18.40;99.90;;;;;;5092951;28;20426;-77
2022/07/15 09:41:26;;;;;;;1.93;0.80;;;;;;;;;;5110626;27;20432;-76
2022/07/15 09:44:06;;;;;;;4.17;0.70;;;18.50;99.90;;;;;;5122594;27;20419;-76
2022/07/15 09:46:52;;;;;;;1.95;0.70;;;;;;;;;;5118307;27;20395;-76
2022/07/15 09:49:27;;;;;;;3.22;0.80;;;;;;;;;;5099203;27;20906;-76
2022/07/15 09:51:55;;;;;;;4.25;0.90;;;;;;;;;;5133953;27;20885;-76
2022/07/15 09:54:23;;;;;;;1.75;0.70;;;18.10;99.90;;;;;;5132251;27;20445;-76
2022/07/15 09:56:49;;;;;;;3.83;0.77;;;;;;;;;;5136108;27;20681;-76
2022/07/15 09:59:16;;;;;;;3.15;0.80;;;18.50;99.90;;;;;;5126497;27;20424;-75
2022/07/15 10:01:42;;;;;;;2.53;0.80;;;18.80;99.90;;;;;;5097194;28;20392;-75
2022/07/15 10:04:09;;;;;;;2.55;0.75;;;19.10;99.90;;;;;;5113716;28;20922;-75
2022/07/15 10:06:37;;;;;;;3.30;0.80;;;;;;;;;;5114109;28;20431;-75
2022/07/15 10:09:04;;;;;;;2.28;0.98;;;;;;;;;;5117510;27;20410;-75
2022/07/15 10:11:32;;;;;;;2.20;0.73;;;19.30;99.90;;;;;;5118355;27;20519;-75
2022/07/15 10:14:08;;;;;;;2.55;0.70;;;19.20;99.90;;;;;;5111676;27;20873;-74
2022/07/15 10:16:56;;;;;;;2.08;0.73;;;19.20;99.90;;;;;;5131612;27;20418;-75
2022/07/15 10:19:25;;;;;;;2.50;0.70;;;;;;;;;;5122529;27;20416;-75
2022/07/15 10:22:36;;;;;;;1.80;0.80;;;19.50;99.90;;;;;;5113694;28;20437;-75
2022/07/15 10:25:31;;;;;;;4.45;0.93;;;19.60;99.90;;;;;;5072041;28;20428;-75
2022/07/15 10:28:10;;;;;;;2.28;0.80;;;;;;;;;;5113907;27;20396;-76
2022/07/15 10:30:39;;;;;;;3.35;0.85;;;;;;;;;;5128328;27;20414;-76
2022/07/15 10:33:13;;;;;;;4.03;0.80;;;;;;;;;;5133807;27;20476;-76
2022/07/15 10:35:53;;;;;;;3.80;0.90;;;21.00;99.90;;;;;;5108951;27;20967;-76
2022/07/15 10:38:38;;;;;;;3.33;0.90;;;21.10;99.90;;;;;;5125495;27;20414;-76
2022/07/15 10:41:09;;;;;;;1.98;0.77;;;20.80;99.90;;;;;;5128868;27;20454;-76
2022/07/15 10:43:43;;;;;;;1.92;0.90;;;20.30;99.90;;;;;;5132705;27;20436;-76
2022/07/15 10:46:19;;;;;;;2.95;1.13;;;;;;;;;;5125359;27;20442;-78
2022/07/15 10:48:49;;;;;;;2.67;0.90;;;20.20;99.90;;;;;;5105843;27;20495;-76
2022/07/15 10:51:36;;;;;;;2.97;1.30;;;20.00;99.90;;;;;;5119755;27;20446;-76
2022/07/15 10:54:18;;;;;;;3.38;1.00;;;;;;;;;;5125695;27;20423;-75
2022/07/15 10:56:48;;;;;;;3.07;0.80;;;19.90;99.90;;;;;;5111977;27;20415;-75
2022/07/15 10:59:23;;;;;;;3.03;1.10;;;20.10;99.90;;;;;;5116735;27;20490;-76
2022/07/15 11:02:00;;;;;;;4.57;0.93;;;20.00;99.90;;;;;;5130077;27;20963;-76
2022/07/15 11:04:31;;;;;;;6.00;0.90;;;20.10;99.90;;;;;;5119986;27;20416;-75
2022/07/15 11:07:10;;;;;;;2.83;0.90;;;;;;;;;;5108171;27;20462;-74
2022/07/15 11:10:06;;;;;;;2.90;1.00;;;20.00;99.90;;;;;;5112664;27;20426;-76
2022/07/15 11:12:33;;;;;;;2.45;0.85;;;;;;;;;;5111514;27;20424;-76
2022/07/15 11:14:59;;;;;;;2.28;0.88;;;20.10;99.90;;;;;;5130326;27;20449;-74
2022/07/15 11:17:28;;;;;;;3.17;0.85;;;19.70;99.90;;;;;;5129177;27;20422;-79
2022/07/15 11:19:59;;;;;;;3.60;1.00;;;19.80;99.90;;;;;;5118799;27;20499;-76
2022/07/15 11:22:28;;;;;;;4.00;0.80;;;20.00;99.90;;;;;;5136316;27;20410;-75
2022/07/15 11:24:55;;;;;;;2.55;0.80;;;;;;;;;;5124987;27;20479;-75
2022/07/15 11:27:22;;;;;;;1.85;0.85;;;;;;;;;;5128885;27;20414;-74
2022/07/15 11:29:54;;;;;;;2.72;1.00;;;20.40;99.90;;;;;;5124860;27;20440;-75
2022/07/15 11:32:22;;;;;;;2.92;1.00;;;20.30;99.90;;;;;;5101630;27;20422;-75
2022/07/15 11:34:59;;;;;;;2.80;1.00;;;20.40;99.90;;;;;;5125574;27;20438;-75
2022/07/15 11:37:34;;;;;;;2.42;0.77;;;20.80;99.90;;;;;;5111481;27;20505;-75
2022/07/15 11:46:01;;;;;;;3.13;0.85;;;20.70;99.90;;;;;;5114353;27;20457;-75
2022/07/15 11:48:27;;;;;;;2.50;0.85;;;;;;;;;;5111887;28;20868;-77
2022/07/15 11:50:55;;;;;;;3.38;0.88;;;20.60;99.90;;;;;;5126665;27;20415;-77
2022/07/15 11:53:22;;;;;;;2.30;1.00;;;;;;;;;;5132853;27;20398;-75
2022/07/15 11:55:55;;;;;;;2.03;0.80;;;;;;;;;;5132520;27;20395;-76
2022/07/15 11:58:29;;;;;;;1.63;0.60;;;;;;;;;;5115241;27;20394;-76
2022/07/15 12:00:55;;;;;;;4.20;0.90;;;;;;;;;;5112506;27;20412;-76
2022/07/15 12:03:21;;;;;;;1.80;0.70;;;19.90;99.90;;;;;;5111358;28;20904;-75
2022/07/15 12:06:05;;;;;;;3.30;1.00;;;;;;;;;;5112912;28;20497;-76
2022/07/15 12:08:55;;;;;;;1.50;0.77;;;;;;;;;;5113288;27;20444;-78
2022/07/15 12:11:29;;;;;;;1.98;1.00;;;20.20;99.90;;;;;;5121112;27;20913;-77
2022/07/15 12:13:55;;;;;;;3.63;0.98;;;;;;;;;;5133848;27;20481;-77
2022/07/15 12:16:30;;;;;;;3.78;0.80;;;;;;;;;;5133333;27;20379;-77
2022/07/15 12:18:57;;;;;;;1.20;0.80;;;;;;;;;;5133230;27;20382;-77
2022/07/15 12:21:24;;;;;;;2.20;1.10;;;20.60;99.90;;;;;;5130729;27;20534;-75
2022/07/15 12:24:08;;;;;;;2.25;1.00;;;20.90;99.90;;;;;;5131520;27;20473;-77
2022/07/15 12:26:39;;;;;;;3.28;1.10;;;;;;;;;;5131651;27;20434;-76
2022/07/15 12:29:06;;;;;;;2.67;0.80;;;21.10;99.90;;;;;;5127939;27;21030;-76
2022/07/15 12:31:33;;;;;;;3.25;1.15;;;20.90;99.90;;;;;;5128548;27;20775;-76
2022/07/15 12:34:00;;;;;;;1.92;1.08;;;21.30;99.90;;;;;;5123346;27;20519;-76
2022/07/15 12:36:29;;;;;;;2.20;1.10;;;20.50;99.90;;;;;;5094590;28;20520;-77
2022/07/15 12:39:08;;;;;;;4.47;1.00;;;20.40;99.90;;;;;;5111995;27;20401;-77
2022/07/15 12:41:35;;;;;;;3.53;1.10;;;;;;;;;;5132975;27;20423;-76
2022/07/15 12:44:02;;;;;;;3.40;1.40;;;20.20;99.90;;;;;;5123018;27;20425;-77
2022/07/15 12:47:03;;;;;;;3.72;1.23;;;20.30;99.90;;;;;;5120253;27;20534;-75
2022/07/15 12:49:44;;;;;;;3.13;1.23;;;20.60;99.90;;;;;;5124925;27;20542;-77
2022/07/15 12:52:12;;;;;;;4.45;1.10;;;;;;;;;;5130046;27;20810;-75
2022/07/15 12:54:40;;;;;;;2.38;1.08;;;20.80;99.90;;;;;;5123636;27;20415;-77
2022/07/15 12:57:06;;;;;;;3.58;1.10;;;;;;;;;;5120242;27;20519;-77
2022/07/15 12:59:49;;;;;;;3.33;1.20;;;;;;;;;;5118554;27;20764;-77
2022/07/15 13:02:14;;;;;;;3.22;1.10;;;20.60;99.90;;;;;;5110835;27;20447;-78
2022/07/15 13:04:40;;;;;;;2.97;1.20;;;20.80;99.90;;;;;;5105376;27;20425;-77
2022/07/15 13:07:06;;;;;;;10.00;5.47;;;21.10;99.90;;;;;;5119356;27;20420;-76
2022/07/15 13:09:32;;;;;;;2.93;1.10;;;;;;;;;;5124083;27;20764;-77
2022/07/15 13:11:59;;;;;;;2.67;1.20;;;21.10;99.90;;;;;;5124237;27;20436;-77
2022/07/15 13:14:25;;;;;;;5.43;1.30;;;;;;;;;;5105283;27;20445;-77
2022/07/15 13:16:51;;;;;;;3.92;1.27;;;;;;;;;;5116727;27;20428;-78
2022/07/15 13:19:17;;;;;;;3.28;1.25;;;21.20;99.90;;;;;;5114241;27;20914;-74
2022/07/15 13:21:43;;;;;;;3.75;1.48;;;21.50;99.90;;;;;;5123016;27;20431;-74
2022/07/15 13:24:09;;;;;;;3.70;1.40;;;21.50;99.90;;;;;;5128155;27;20424;-76
2022/07/15 13:26:35;;;;;;;2.72;1.08;;;21.80;99.90;;;;;;5112931;27;20410;-77
2022/07/15 13:29:04;;;;;;;2.72;1.15;;;;;;;;;;5117020;27;20402;-77
2022/07/15 13:31:30;;;;;;;2.00;1.10;;;;;;;;;;5113503;27;20431;-77
2022/07/15 13:33:55;;;;;;;2.95;1.05;;;21.50;99.90;;;;;;5110186;27;20414;-76
2022/07/15 13:36:22;;;;;;;4.37;1.40;;;20.90;99.90;;;;;;5130728;27;20399;-77
2022/07/15 13:38:48;;;;;;;2.97;1.52;;;;;;;;;;5124313;27;20406;-77
2022/07/15 13:41:14;;;;;;;4.93;1.30;;;;;;;;;;5116846;28;20486;-77
2022/07/15 13:43:46;;;;;;;4.32;1.50;;;20.70;99.90;;;;;;5119300;27;20459;-76
2022/07/15 13:46:12;;;;;;;4.18;1.48;;;;;;;;;;5102716;27;20858;-76
2022/07/15 13:48:38;;;;;;;3.88;1.30;;;;;;;;;;5128751;27;20920;-76
2022/07/15 13:51:22;;;;;;;3.80;1.60;;;;;;;;;;5118826;28;20945;-77
2022/07/15 13:53:49;;;;;;;4.35;1.30;;;;;;;;;;5121594;27;20958;-76
2022/07/15 13:56:15;;;;;;;3.13;1.50;;;;;;;;;;5102318;27;20489;-77
2022/07/15 13:58:41;;;;;;;4.38;1.50;;;20.60;99.90;;;;;;5122779;27;20808;-78
2022/07/15 14:01:08;;;;;;;3.08;1.30;;;;;;;;;;5102248;27;20463;-77
2022/07/15 14:03:34;;;;;;;5.30;1.45;;;;;;;;;;5121489;27;20412;-77
2022/07/15 14:06:00;;;;;;;4.47;1.40;;;;;;;;;;5122162;28;20494;-77
2022/07/15 14:08:32;;;;;;;5.25;1.60;;;;;;;;;;5117216;27;20474;-77
2022/07/15 14:10:58;;;;;;;2.70;1.38;;;;;;;;;;5115795;28;20402;-76
2022/07/15 14:13:24;;;;;;;4.50;1.70;;;;;;;;;;5115833;27;20491;-76
2022/07/15 14:15:50;;;;;;;5.75;1.70;;;;;;;;;;5128677;27;20426;-76
2022/07/15 14:18:16;;;;;;;3.08;1.35;;;21.50;99.90;;;;;;5126834;27;20426;-76
2022/07/15 14:20:45;;;;;;;2.57;1.30;;;;;;;;;;5104143;28;20503;-77
2022/07/15 14:23:11;;;;;;;4.43;1.45;;;;;;;;;;5103388;28;20944;-76
2022/07/15 14:25:41;;;;;;;3.55;1.25;;;;;;;;;;5119285;27;20431;-76
2022/07/15 14:28:16;;;;;;;3.85;1.42;;;;;;;;;;5121209;28;20437;-76
2022/07/15 14:30:42;;;;;;;4.88;1.52;;;;;;;;;;5122605;27;20418;-76